Time;durP1;ratioP1;P1;durP2;ratioP2;P2;SDS_P1;SDS_P2;PMS_P1;PMS_P2;Temp;Humidity;BMP_temperature;BMP_pressure;BME280_temperature;BME280_humidity;BME280_pressure;Samples;Min_cycle;Max_cycle;Signal;HPM_P1;HPM_P2
2022/07/20 00:02:11;;;;;;;5.53;2.60;;;;;;;;;;5093268;28;20629;-90
2022/07/20 00:04:38;;;;;;;8.52;3.08;;;;;;;;;;5092682;28;20235;-90
2022/07/20 00:07:05;;;;;;;4.85;2.63;;;;;;;;;;5079961;28;20664;-90
2022/07/20 00:12:17;;;;;;;7.57;2.97;;;;;;;;;;5073256;28;20692;-90
2022/07/20 00:14:44;;;;;;;3.90;2.92;;;;;;;;;;5073096;28;20272;-91
2022/07/20 00:17:13;;;;;;;5.18;3.22;;;;;;;;;;5073645;28;20220;-90
2022/07/20 00:19:40;;;;;;;5.47;2.85;;;;;;;;;;5073123;28;20391;-90
2022/07/20 00:22:07;;;;;;;7.32;3.45;;;;;;;;;;5073283;28;20208;-90
2022/07/20 00:24:35;;;;;;;4.07;2.85;;;;;;;;;;5054447;28;20241;-90
2022/07/20 00:27:02;;;;;;;6.18;3.00;;;;;;;;;;5053658;28;20663;-90
2022/07/20 00:29:29;;;;;;;5.15;2.95;;;;;;;;;;5052902;28;20241;-90
2022/07/20 00:31:56;;;;;;;7.65;3.00;;;;;;;;;;5052896;28;20210;-89
2022/07/20 00:34:24;;;;;;;3.72;2.72;;;;;;;;;;5070098;28;20225;-90
2022/07/20 00:36:52;;;;;;;4.85;2.65;;;;;;;;;;5077553;28;20294;-90
2022/07/20 00:39:19;;;;;;;4.75;2.80;;;;;;;;;;5076208;28;20240;-90
2022/07/20 00:41:46;;;;;;;3.78;2.75;;;;;;;;;;5076564;28;20202;-90
2022/07/20 00:44:13;;;;;;;5.65;2.75;;;;;;;;;;5076343;28;20225;-90
2022/07/20 00:46:41;;;;;;;7.25;2.45;;;;;;;;;;5076977;28;20200;-90
2022/07/20 00:49:09;;;;;;;3.10;2.80;;;;;;;;;;5090841;28;20228;-90
2022/07/20 00:51:39;;;;;;;6.07;2.85;;;;;;;;;;5090597;28;20216;-90
2022/07/20 00:54:07;;;;;;;3.63;2.85;;;;;;;;;;5062205;28;20245;-90
2022/07/20 00:56:34;;;;;;;5.32;3.47;;;;;;;;;;5070763;28;20685;-90
2022/07/20 00:59:02;;;;;;;5.97;2.70;;;;;;;;;;5076711;28;20236;-90
2022/07/20 01:01:30;;;;;;;5.13;2.67;;;;;;;;;;5075888;28;20236;-90
2022/07/20 01:03:57;;;;;;;3.38;2.80;;;;;;;;;;5075560;28;20245;-90
2022/07/20 01:06:25;;;;;;;4.40;3.05;;;;;;;;;;5091667;28;20205;-90
2022/07/20 01:08:53;;;;;;;5.25;2.58;;;;;;;;;;5088132;28;20225;-89
2022/07/20 01:11:20;;;;;;;4.63;3.10;;;;;;;;;;5076741;28;20216;-90
2022/07/20 01:13:48;;;;;;;4.63;3.05;;;;;;;;;;5076279;28;20245;-89
2022/07/20 01:16:15;;;;;;;7.85;2.70;;;;;;;;;;5076253;28;20217;-89
2022/07/20 01:18:43;;;;;;;12.90;2.88;;;;;;;;;;5076292;28;20267;-90
2022/07/20 01:21:11;;;;;;;7.32;3.20;;;;;;;;;;5088928;28;20232;-90
2022/07/20 01:23:38;;;;;;;6.10;3.53;;;;;;;;;;5089277;28;20714;-89
2022/07/20 01:26:05;;;;;;;4.28;3.25;;;;;;;;;;5076712;28;20210;-90
2022/07/20 01:28:34;;;;;;;4.20;2.85;;;;;;;;;;5096468;28;20224;-90
2022/07/20 01:31:02;;;;;;;5.80;3.35;;;;;;;;;;5088583;28;20209;-90
2022/07/20 01:33:29;;;;;;;3.20;3.00;;;;;;;;;;5075399;28;20236;-89
2022/07/20 01:35:56;;;;;;;4.20;3.05;;;;;;;;;;5076181;28;20696;-89
2022/07/20 01:38:24;;;;;;;4.22;2.90;;;;;;;;;;5075649;28;20229;-89
2022/07/20 01:40:51;;;;;;;3.72;2.80;;;;;;;;;;5092383;28;20660;-90
2022/07/20 01:43:19;;;;;;;3.55;2.70;;;;;;;;;;5096374;28;20805;-89
2022/07/20 01:45:46;;;;;;;3.58;2.70;;;;;;;;;;5098527;28;20216;-89
2022/07/20 01:48:13;;;;;;;3.50;3.20;;;;;;;;;;5109083;28;20235;-89
2022/07/20 01:50:41;;;;;;;6.28;3.10;;;;;;;;;;5096886;28;20219;-89
2022/07/20 01:53:08;;;;;;;6.60;2.85;;;;;;;;;;5095616;28;20244;-89
2022/07/20 01:55:37;;;;;;;5.03;2.85;;;;;;;;;;5096361;28;20224;-89
2022/07/20 01:58:04;;;;;;;3.70;3.13;;;;;;;;;;5096239;28;20722;-89
2022/07/20 02:00:32;;;;;;;6.82;2.75;;;;;;;;;;5096608;28;20276;-89
2022/07/20 02:02:59;;;;;;;6.90;3.00;;;;;;;;;;5096278;28;20228;-89
2022/07/20 02:05:26;;;;;;;5.72;3.17;;;;;;;;;;5094346;28;20683;-90
2022/07/20 02:07:53;;;;;;;8.10;2.90;;;;;;;;;;5075537;28;20237;-89
2022/07/20 02:10:20;;;;;;;3.17;2.88;;;;;;;;;;5104729;28;20205;-90
2022/07/20 02:12:48;;;;;;;7.07;3.40;;;;;;;;;;5101331;28;20224;-90
2022/07/20 02:16:14;;;;;;;7.97;3.20;;;;;;;;;;5099660;28;20281;-89
2022/07/20 02:18:06;;;;;;;9.07;3.10;;;;;;;;;;5097436;28;20228;-89
2022/07/20 02:20:33;;;;;;;5.32;3.10;;;;;;;;;;5096536;28;20525;-89
2022/07/20 02:23:00;;;;;;;3.53;2.47;;;;;;;;;;5077756;28;20685;-89
2022/07/20 02:25:29;;;;;;;5.03;2.95;;;;;;;;;;5076530;28;20193;-89
2022/07/20 02:27:58;;;;;;;4.25;3.13;;;;;;;;;;5084869;28;20231;-90
2022/07/20 02:30:25;;;;;;;5.50;2.80;;;;;;;;;;5099631;28;20189;-89
2022/07/20 02:32:52;;;;;;;4.13;3.08;;;;;;;;;;5097577;28;20235;-90
2022/07/20 02:35:19;;;;;;;4.47;2.97;;;;;;;;;;5087219;28;20713;-90
2022/07/20 02:37:46;;;;;;;4.70;3.17;;;;;;;;;;5086181;28;20249;-89
2022/07/20 02:40:13;;;;;;;6.05;2.90;;;;;;;;;;5086856;28;20198;-90
2022/07/20 02:42:40;;;;;;;2.95;2.75;;;;;;;;;;5081765;28;20243;-89
2022/07/20 02:45:10;;;;;;;4.45;3.22;;;;;;;;;;5081128;28;20216;-90
2022/07/20 02:47:43;;;;;;;3.70;2.80;;;;;;;;;;5083327;28;20254;-90
2022/07/20 02:50:11;;;;;;;6.05;3.35;;;;;;;;;;5092457;28;20194;-89
2022/07/20 02:52:38;;;;;;;4.32;2.72;;;;;;;;;;5083427;28;20222;-90
2022/07/20 02:55:05;;;;;;;8.52;3.22;;;;;;;;;;5098853;28;20877;-89
2022/07/20 02:57:32;;;;;;;3.75;2.83;;;;;;;;;;5095681;28;20196;-89
2022/07/20 02:59:59;;;;;;;5.47;3.22;;;;;;;;;;5100462;28;20258;-89
2022/07/20 03:02:28;;;;;;;5.00;2.92;;;;;;;;;;5100261;28;20196;-89
2022/07/20 03:04:55;;;;;;;3.60;2.75;;;;;;;;;;5086362;28;20232;-89
2022/07/20 03:07:22;;;;;;;3.53;2.75;;;;;;;;;;5089980;28;20205;-89
2022/07/20 03:09:49;;;;;;;7.00;2.75;;;;;;;;;;5094191;28;20212;-89
2022/07/20 03:12:16;;;;;;;10.80;3.20;;;;;;;;;;5094592;28;20200;-89
2022/07/20 03:14:43;;;;;;;8.55;3.03;;;;;;;;;;5093877;28;20692;-89
2022/07/20 03:17:10;;;;;;;7.40;3.03;;;;;;;;;;5083430;28;20205;-89
2022/07/20 03:19:39;;;;;;;4.03;2.83;;;;;;;;;;5073940;28;20244;-88
2022/07/20 03:22:06;;;;;;;4.07;3.05;;;;;;;;;;5073933;28;20209;-89
2022/07/20 03:24:33;;;;;;;4.07;3.13;;;;;;;;;;5080627;28;20228;-88
2022/07/20 03:27:00;;;;;;;3.33;3.03;;;;;;;;;;5092028;28;20196;-89
2022/07/20 03:29:27;;;;;;;3.28;2.78;;;;;;;;;;5082404;28;20303;-89
2022/07/20 03:31:55;;;;;;;5.22;3.10;;;;;;;;;;5086674;28;20201;-88
2022/07/20 03:34:22;;;;;;;3.50;3.10;;;;;;;;;;5094383;28;20240;-88
2022/07/20 03:36:50;;;;;;;11.07;3.10;;;;;;;;;;5093962;28;20224;-89
2022/07/20 03:39:17;;;;;;;5.28;3.10;;;;;;;;;;5093212;28;20239;-88
2022/07/20 03:42:02;;;;;;;6.15;3.05;;;;;;;;;;5100815;28;20283;-88
2022/07/20 03:44:29;;;;;;;2.95;2.70;;;;;;;;;;5116139;28;20246;-89
2022/07/20 03:46:56;;;;;;;7.45;2.95;;;;;;;;;;5105730;28;20645;-88
2022/07/20 03:49:23;;;;;;;9.55;3.20;;;;;;;;;;5092876;28;20229;-87
2022/07/20 03:51:52;;;;;;;8.57;3.45;;;;;;;;;;5094049;28;20319;-88
2022/07/20 03:54:19;;;;;;;5.80;3.15;;;;;;;;;;5093319;28;20240;-88
2022/07/20 03:56:46;;;;;;;4.10;3.65;;;;;;;;;;5093379;28;20250;-88
2022/07/20 03:59:13;;;;;;;6.13;3.10;;;;;;;;;;5093167;28;20255;-88
2022/07/20 04:01:41;;;;;;;4.68;3.17;;;;;;;;;;5093147;28;20204;-88
2022/07/20 04:04:08;;;;;;;6.13;3.20;;;;;;;;;;5093189;28;20240;-88
2022/07/20 04:06:35;;;;;;;4.07;3.13;;;;;;;;;;5094011;28;20201;-88
2022/07/20 04:09:04;;;;;;;11.25;3.35;;;;;;;;;;5093725;28;20259;-88
2022/07/20 04:11:31;;;;;;;6.63;3.80;;;;;;;;;;5097316;28;20211;-88
2022/07/20 04:13:58;;;;;;;10.67;4.20;;;;;;;;;;5097058;28;20236;-88
2022/07/20 04:16:25;;;;;;;6.40;3.00;;;;;;;;;;5097866;28;20240;-88
2022/07/20 04:18:53;;;;;;;5.73;3.47;;;;;;;;;;5097023;28;20250;-88
2022/07/20 04:21:20;;;;;;;6.43;3.40;;;;;;;;;;5097868;28;20200;-88
2022/07/20 04:23:47;;;;;;;5.70;3.40;;;;;;;;;;5108765;22;20234;-84
2022/07/20 04:26:15;;;;;;;11.50;3.50;;;;;;;;;;5056446;28;20198;-84
2022/07/20 04:28:42;;;;;;;9.13;4.07;;;;;;;;;;5055827;28;20240;-85
2022/07/20 04:31:09;;;;;;;17.57;4.37;;;;;;;;;;5056325;28;20545;-84
2022/07/20 04:33:36;;;;;;;13.13;4.63;;;;;;;;;;5056286;28;20241;-84
2022/07/20 04:36:03;;;;;;;10.47;4.60;;;;;;;;;;5055962;28;20234;-84
2022/07/20 04:38:30;;;;;;;9.00;3.97;;;;;;;;;;5056187;28;20229;-85
2022/07/20 04:40:58;;;;;;;8.73;4.10;;;;;;;;;;5056379;28;20610;-83
2022/07/20 04:43:26;;;;;;;5.57;3.17;;;;;;;;;;5055538;28;20242;-84
2022/07/20 04:45:53;;;;;;;9.57;3.83;;;;;;;;;;5055618;28;20237;-84
2022/07/20 04:48:21;;;;;;;6.17;3.60;;;;;;;;;;5055384;28;20237;-85
2022/07/20 04:50:48;;;;;;;5.73;4.03;;;;;;;;;;5055694;28;20237;-84
2022/07/20 04:53:15;;;;;;;6.60;3.47;;;;;;;;;;5055177;28;20226;-84
2022/07/20 04:55:42;;;;;;;12.77;3.50;;;;;;;;;;5055558;28;20233;-84
2022/07/20 04:58:09;;;;;;;7.40;3.73;;;;;;;;;;5054870;28;20596;-84
2022/07/20 05:00:37;;;;;;;6.68;3.55;;;;;;;;;;5053567;28;20202;-84
2022/07/20 05:03:04;;;;;;;6.47;3.70;;;;;;;;;;5068436;28;20225;-84
2022/07/20 05:05:31;;;;;;;4.57;3.40;;;;;;;;;;5056351;28;20238;-84
2022/07/20 05:07:59;;;;;;;6.25;3.42;;;;;;;;;;5030318;28;20242;-84
2022/07/20 05:10:26;;;;;;;4.63;3.77;;;;;;;;;;5018177;28;20953;-84
2022/07/20 05:12:53;;;;;;;5.17;3.20;;;;;;;;;;5034828;28;20242;-84
2022/07/20 05:15:23;;;;;;;7.20;3.17;;;;;;;;;;5034568;28;20229;-85
2022/07/20 05:17:51;;;;;;;6.47;3.60;;;;;;;;;;5015211;28;20227;-84
2022/07/20 05:20:18;;;;;;;5.53;3.43;;;;;;;;;;5015057;28;20211;-85
2022/07/20 05:22:45;;;;;;;4.07;3.67;;;;;;;;;;5042847;28;20717;-82
2022/07/20 05:25:13;;;;;;;6.38;3.55;;;;;;;;;;5054942;28;20288;-85
2022/07/20 05:27:40;;;;;;;4.85;3.42;;;;;;;;;;5022600;28;20637;-84
2022/07/20 05:30:08;;;;;;;8.43;3.70;;;;;;;;;;4995850;28;20216;-83
2022/07/20 05:32:35;;;;;;;7.93;3.22;;;;;;;;;;4996999;28;20203;-86
2022/07/20 05:35:04;;;;;;;3.95;3.05;;;;;;;;;;5015309;28;20223;-85
2022/07/20 05:37:31;;;;;;;5.35;3.45;;;;;;;;;;5013030;28;20258;-86
2022/07/20 05:39:58;;;;;;;6.10;3.88;;;;;;;;;;4995490;28;20231;-87
2022/07/20 05:42:25;;;;;;;5.35;3.67;;;;;;;;;;4995257;28;20208;-86
2022/07/20 05:44:52;;;;;;;5.80;3.83;;;;;;;;;;5014790;28;20235;-87
2022/07/20 05:47:19;;;;;;;5.10;3.30;;;;;;;;;;5015266;28;20210;-86
2022/07/20 05:49:48;;;;;;;4.68;3.80;;;;;;;;;;4994696;28;20239;-85
2022/07/20 05:52:17;;;;;;;5.22;3.33;;;;;;;;;;4994776;28;20291;-83
2022/07/20 05:54:44;;;;;;;4.72;3.55;;;;;;;;;;5005723;28;20239;-84
2022/07/20 05:57:11;;;;;;;6.60;3.17;;;;;;;;;;5014571;28;20231;-84
2022/07/20 05:59:38;;;;;;;8.20;3.88;;;;;;;;;;4995426;28;20720;-84
2022/07/20 06:02:05;;;;;;;7.13;3.42;;;;;;;;;;4994599;28;20243;-84
2022/07/20 06:04:32;;;;;;;5.55;3.70;;;;;;;;;;4994347;28;20318;-84
2022/07/20 06:06:59;;;;;;;5.00;3.40;;;;;;;;;;4994867;28;20212;-84
2022/07/20 06:09:28;;;;;;;4.70;3.17;;;;;;;;;;4994341;28;20235;-84
2022/07/20 06:11:55;;;;;;;5.50;3.35;;;;;;;;;;4994262;28;20208;-84
2022/07/20 06:14:22;;;;;;;4.07;3.03;;;;;;;;;;4993808;28;20236;-84
2022/07/20 06:16:49;;;;;;;4.13;2.92;;;;;;;;;;4994956;28;20232;-84
2022/07/20 06:19:16;;;;;;;6.10;2.95;;;;;;;;;;4994153;28;20239;-84
2022/07/20 06:21:43;;;;;;;3.08;2.72;;;;;;;;;;4994717;28;20234;-84
2022/07/20 06:24:10;;;;;;;6.05;3.13;;;;;;;;;;5001669;28;20270;-82
2022/07/20 06:26:38;;;;;;;5.53;2.88;;;;;;;;;;5016490;28;20214;-82
2022/07/20 06:29:05;;;;;;;4.28;3.15;;;;;;;;;;5051618;28;20241;-83
2022/07/20 06:31:32;;;;;;;4.63;2.22;;;;;;;;;;5052670;28;20317;-83
2022/07/20 06:33:59;;;;;;;4.85;2.50;;;;;;;;;;5053148;28;20233;-84
2022/07/20 06:36:26;;;;;;;2.60;1.95;;;;;;;;;;5053542;28;20720;-83
2022/07/20 06:38:54;;;;;;;5.25;2.20;;;;;;;;;;5053146;28;20248;-84
2022/07/20 06:41:21;;;;;;;3.90;2.20;;;;;;;;;;5053370;28;20646;-83
2022/07/20 06:43:49;;;;;;;2.55;2.05;;;;;;;;;;5052940;28;20249;-84
2022/07/20 06:46:16;;;;;;;6.25;2.47;;;;;;;;;;5053613;28;20210;-84
2022/07/20 06:48:43;;;;;;;2.40;2.20;;;;;;;;;;5052877;28;20234;-84
2022/07/20 06:51:11;;;;;;;4.50;2.30;;;;;;;;;;5053282;28;20237;-84
2022/07/20 06:53:38;;;;;;;5.30;2.40;;;;;;;;;;5060475;28;20234;-79
2022/07/20 06:56:06;;;;;;;2.90;2.20;;;;;;;;;;5063384;28;20225;-80
2022/07/20 06:58:33;;;;;;;7.47;2.53;;;;;;;;;;5060067;28;20252;-80
2022/07/20 07:01:01;;;;;;;3.72;2.40;;;;;;;;;;5061862;28;20214;-80
2022/07/20 07:03:28;;;;;;;3.05;2.20;;;;;;;;;;5062017;28;20249;-80
2022/07/20 07:05:55;;;;;;;4.68;2.30;;;;;;;;;;5063901;28;20655;-80
2022/07/20 07:08:22;;;;;;;4.20;2.33;;;;;;;;;;5054893;28;20238;-80
2022/07/20 07:10:49;;;;;;;3.88;2.17;;;;;;;;;;5042884;28;20238;-81
2022/07/20 07:13:20;;;;;;;2.22;2.03;;;;;;;;;;5036748;28;20254;-80
2022/07/20 07:15:47;;;;;;;2.38;2.17;;;;;;;;;;5035317;28;20630;-81
2022/07/20 07:18:15;;;;;;;4.95;2.25;;;;;;;;;;5042623;28;20655;-80
2022/07/20 07:20:42;;;;;;;4.20;2.28;;;;;;;;;;5042263;28;20207;-81
2022/07/20 07:23:10;;;;;;;3.25;2.22;;;;;;;;;;5049491;28;20667;-80
2022/07/20 07:25:37;;;;;;;4.82;2.75;;;;;;;;;;5043536;28;20206;-81
2022/07/20 07:28:05;;;;;;;3.13;2.30;;;;;;;;;;5036866;28;20238;-80
2022/07/20 07:30:33;;;;;;;3.78;2.38;;;;;;;;;;5021776;28;20234;-80
2022/07/20 07:33:00;;;;;;;2.70;2.50;;;;;;;;;;5022404;28;20237;-81
2022/07/20 07:35:28;;;;;;;2.20;2.00;;;;;;;;;;5021655;28;20228;-81
2022/07/20 07:37:55;;;;;;;3.15;2.08;;;;;;;;;;5020943;28;20239;-80
2022/07/20 07:40:22;;;;;;;6.13;2.30;;;;;;;;;;5020571;28;20257;-81
2022/07/20 07:42:49;;;;;;;4.25;2.33;;;;;;;;;;5018476;28;20235;-81
2022/07/20 07:45:16;;;;;;;3.05;2.70;;;;;;;;;;5018798;28;20231;-81
2022/07/20 07:47:46;;;;;;;3.50;2.35;;;;;;;;;;5017797;28;20850;-81
2022/07/20 07:50:13;;;;;;;3.50;2.28;;;;;;;;;;5017329;28;20235;-82
2022/07/20 07:52:42;;;;;;;3.17;2.10;;;;;;;;;;5016361;28;20208;-81
2022/07/20 07:55:09;;;;;;;3.83;2.50;;;;;;;;;;5017110;28;20231;-81
2022/07/20 07:57:36;;;;;;;5.57;2.30;;;;;;;;;;5016549;28;20231;-81
2022/07/20 08:00:04;;;;;;;3.60;2.00;;;;;;;;;;5023879;28;20210;-83
2022/07/20 08:02:31;;;;;;;5.20;2.20;;;;;;;;;;5015760;28;20218;-87
2022/07/20 08:04:58;;;;;;;4.07;2.25;;;;;;;;;;5015334;28;20230;-87
2022/07/20 08:07:25;;;;;;;2.78;2.30;;;;;;;;;;5015583;28;20671;-88
2022/07/20 08:09:54;;;;;;;3.53;1.98;;;;;;;;;;5014487;28;20196;-88
2022/07/20 08:12:23;;;;;;;2.80;2.40;;;;;;;;;;5014047;28;20207;-86
2022/07/20 08:14:50;;;;;;;3.20;2.25;;;;;;;;;;5013622;28;20235;-87
2022/07/20 08:17:19;;;;;;;5.18;2.30;;;;;;;;;;5015032;28;20223;-88
2022/07/20 08:19:46;;;;;;;2.15;1.85;;;;;;;;;;5032700;28;20243;-86
2022/07/20 08:22:13;;;;;;;3.42;1.98;;;;;;;;;;5034041;28;20225;-87
2022/07/20 08:24:40;;;;;;;5.60;2.22;;;;;;;;;;5027785;28;20245;-87
2022/07/20 08:27:08;;;;;;;2.38;1.98;;;;;;;;;;5034961;28;20206;-87
2022/07/20 08:29:35;;;;;;;4.55;2.60;;;;;;;;;;5045423;28;20617;-87
2022/07/20 08:32:02;;;;;;;3.03;2.58;;;;;;;;;;5059130;28;20194;-89
2022/07/20 08:34:29;;;;;;;3.05;2.20;;;;;;;;;;5076357;28;20237;-93
2022/07/20 08:36:57;;;;;;;2.97;2.25;;;;;;;;;;5069684;28;20218;-86
2022/07/20 08:39:25;;;;;;;3.33;2.38;;;;;;;;;;5055099;28;20313;-87
2022/07/20 08:41:52;;;;;;;4.47;2.50;;;;;;;;;;5052148;28;20210;-87
2022/07/20 08:44:20;;;;;;;2.55;2.35;;;;;;;;;;5051660;28;20244;-87
2022/07/20 08:46:47;;;;;;;2.40;2.25;;;;;;;;;;5051830;28;20202;-86
2022/07/20 08:49:15;;;;;;;5.05;2.50;;;;;;;;;;5052684;28;20243;-84
2022/07/20 08:51:43;;;;;;;3.22;2.30;;;;;;;;;;5051548;28;20210;-83
2022/07/20 08:54:10;;;;;;;7.30;3.45;;;;;;;;;;5051282;28;20352;-83
2022/07/20 08:56:37;;;;;;;3.42;2.35;;;;;;;;;;5055732;28;20213;-85
2022/07/20 08:59:04;;;;;;;3.97;2.75;;;;;;;;;;5055319;28;20234;-84
2022/07/20 09:01:32;;;;;;;3.40;2.60;;;;;;;;;;5055283;28;20665;-84
2022/07/20 09:04:07;;;;;;;3.00;2.50;;;;;;;;;;5054652;28;20253;-84
2022/07/20 09:06:34;;;;;;;2.38;2.17;;;;;;;;;;5055038;28;20235;-84
2022/07/20 09:09:03;;;;;;;3.03;2.47;;;;;;;;;;5054793;28;20230;-84
2022/07/20 09:11:30;;;;;;;5.15;2.20;;;;;;;;;;5057439;28;20206;-84
2022/07/20 09:13:57;;;;;;;3.10;2.50;;;;;;;;;;5058019;28;20283;-84
2022/07/20 09:16:33;;;;;;;4.55;2.40;;;;;;;;;;5058741;28;20202;-84
2022/07/20 09:19:00;;;;;;;2.60;2.30;;;;;;;;;;5058435;28;20237;-84
2022/07/20 09:21:31;;;;;;;5.53;2.20;;;;;;;;;;5058481;28;20201;-84
2022/07/20 09:24:02;;;;;;;2.47;2.28;;;;;;;;;;5057844;28;20237;-84
2022/07/20 09:26:29;;;;;;;2.47;2.28;;;;;;;;;;5058263;28;20209;-84
2022/07/20 09:28:57;;;;;;;2.67;2.17;;;;;;;;;;5056574;28;20244;-85
2022/07/20 09:31:26;;;;;;;2.67;2.47;;;;;;;;;;5055670;28;20217;-85
2022/07/20 09:33:55;;;;;;;4.60;2.55;;;;;;;;;;5054822;28;20260;-85
2022/07/20 09:36:24;;;;;;;4.43;2.28;;;;;;;;;;5055474;28;20201;-85
2022/07/20 09:38:51;;;;;;;2.55;2.33;;;;;;;;;;5034705;28;20233;-85
2022/07/20 09:41:23;;;;;;;3.72;2.35;;;;;;;;;;5034904;28;20670;-85
2022/07/20 09:43:50;;;;;;;4.57;2.50;;;;;;;;;;5034159;28;20284;-85
2022/07/20 09:46:18;;;;;;;4.05;2.13;;;;;;;;;;5034854;28;20214;-85
2022/07/20 09:48:46;;;;;;;4.65;2.47;;;;;;;;;;5034510;28;20237;-85
2022/07/20 09:51:22;;;;;;;2.90;2.22;;;;;;;;;;5034724;28;20595;-85
2022/07/20 09:53:49;;;;;;;2.42;2.22;;;;;;;;;;5034445;28;20242;-85
2022/07/20 09:56:17;;;;;;;2.65;2.45;;;;;;;;;;5035141;28;20209;-86
2022/07/20 09:58:46;;;;;;;4.47;2.88;;;;;;;;;;5036460;28;20238;-87
2022/07/20 10:01:14;;;;;;;5.40;2.78;;;;;;;;;;5035593;28;20210;-87
2022/07/20 10:03:42;;;;;;;4.60;2.53;;;;;;;;;;5034534;28;20249;-85
2022/07/20 10:06:09;;;;;;;2.42;1.98;;;;;;;;;;5034903;28;20225;-85
2022/07/20 10:08:38;;;;;;;3.63;2.80;;;;;;;;;;5033934;28;20237;-85
2022/07/20 10:11:05;;;;;;;2.75;2.53;;;;;;;;;;5034048;28;20214;-86
2022/07/20 10:13:32;;;;;;;2.97;2.70;;;;;;;;;;5033743;28;20234;-85
2022/07/20 10:16:02;;;;;;;3.97;2.55;;;;;;;;;;5033951;28;20316;-85
2022/07/20 10:18:29;;;;;;;3.63;2.58;;;;;;;;;;5033333;28;20242;-85
2022/07/20 10:20:57;;;;;;;4.32;2.63;;;;;;;;;;5033926;28;20264;-86
2022/07/20 10:23:33;;;;;;;7.53;3.05;;;;;;;;;;5033592;28;20226;-86
2022/07/20 10:26:01;;;;;;;2.45;2.25;;;;;;;;;;5034593;28;20190;-86
2022/07/20 10:28:33;;;;;;;3.13;2.90;;;;;;;;;;5033985;28;20229;-85
2022/07/20 10:31:02;;;;;;;5.22;3.00;;;;;;;;;;5034321;28;20190;-87
2022/07/20 10:33:29;;;;;;;3.00;2.80;;;;;;;;;;5111441;22;20303;-88
2022/07/20 10:36:41;;;;;;;4.82;2.80;;;;;;;;;;5074410;28;20571;-88
2022/07/20 10:38:43;;;;;;;4.70;2.67;;;;;;;;;;5073187;28;20236;-88
2022/07/20 10:44:15;;;;;;;5.40;2.50;;;;;;;;;;5092742;28;20251;-88
2022/07/20 10:46:42;;;;;;;4.25;2.60;;;;;;;;;;5094223;28;20212;-89
2022/07/20 10:49:09;;;;;;;3.35;3.00;;;;;;;;;;5093965;28;20637;-90
2022/07/20 10:51:36;;;;;;;7.07;3.00;;;;;;;;;;5097516;28;20200;-92
2022/07/20 10:54:18;;;;;;;3.65;2.97;;;;;;;;;;5094286;28;20248;-86
2022/07/20 10:56:47;;;;;;;5.47;2.83;;;;;;;;;;5094100;28;20203;-88
2022/07/20 10:59:14;;;;;;;6.85;2.83;;;;;;;;;;5094747;28;20369;-89
2022/07/20 11:01:41;;;;;;;4.57;3.03;;;;;;;;;;5093652;28;20188;-88
2022/07/20 11:04:13;;;;;;;3.67;2.70;;;;;;;;;;5093550;28;20238;-88
2022/07/20 11:06:40;;;;;;;4.30;2.90;;;;;;;;;;5094074;28;20646;-88
2022/07/20 11:09:07;;;;;;;3.40;2.97;;;;;;;;;;5093222;28;20745;-87
2022/07/20 11:11:35;;;;;;;3.38;2.70;;;;;;;;;;5093931;28;20200;-87
2022/07/20 11:14:05;;;;;;;3.88;2.92;;;;;;;;;;5092924;28;20240;-89
2022/07/20 11:16:33;;;;;;;9.10;2.90;;;;;;;;;;5089827;28;20242;-88
2022/07/20 11:19:01;;;;;;;3.78;3.47;;;;;;;;;;5088806;27;20240;-89
2022/07/20 11:21:29;;;;;;;4.43;2.65;;;;;;;;;;5073503;28;20188;-90
2022/07/20 11:23:56;;;;;;;5.50;3.20;;;;;;;;;;5072411;28;20244;-87
2022/07/20 11:26:23;;;;;;;4.50;3.00;;;;;;;;;;5073329;28;20205;-90
2022/07/20 11:28:52;;;;;;;5.13;2.83;;;;;;;;;;5074940;28;20293;-89
2022/07/20 11:31:22;;;;;;;4.55;2.95;;;;;;;;;;5094466;28;20245;-88
2022/07/20 11:33:51;;;;;;;5.10;2.78;;;;;;;;;;5092100;28;20242;-89
2022/07/20 11:36:20;;;;;;;3.17;2.83;;;;;;;;;;5092885;28;20184;-87
2022/07/20 11:38:49;;;;;;;3.50;3.20;;;;;;;;;;5092882;28;20244;-88
2022/07/20 11:41:17;;;;;;;2.60;2.40;;;;;;;;;;5088814;28;20624;-88
2022/07/20 11:43:44;;;;;;;7.20;3.22;;;;;;;;;;5092271;28;20928;-88
2022/07/20 11:46:13;;;;;;;3.50;3.20;;;;;;;;;;5088802;28;20201;-88
2022/07/20 11:48:42;;;;;;;3.95;3.00;;;;;;;;;;5082391;28;20224;-88
2022/07/20 11:51:10;;;;;;;3.80;2.70;;;;;;;;;;5080862;28;20205;-88
2022/07/20 11:53:38;;;;;;;4.88;3.20;;;;;;;;;;5072167;28;20240;-88
2022/07/20 11:56:06;;;;;;;5.10;2.83;;;;;;;;;;5072283;28;20211;-89
2022/07/20 11:58:34;;;;;;;5.40;3.05;;;;;;;;;;5071771;28;20236;-86
2022/07/20 12:01:01;;;;;;;3.13;2.83;;;;;;;;;;5071571;28;20710;-89
2022/07/20 12:03:30;;;;;;;4.00;3.00;;;;;;;;;;5071769;28;20232;-89
2022/07/20 12:06:02;;;;;;;3.58;3.28;;;;;;;;;;5072090;28;20908;-89
2022/07/20 12:08:29;;;;;;;6.63;3.00;;;;;;;;;;5072516;28;20290;-91
2022/07/20 12:10:57;;;;;;;3.17;2.80;;;;;;;;;;5071886;28;20735;-89
2022/07/20 12:13:24;;;;;;;6.43;3.70;;;;;;;;;;5071458;28;20232;-90
2022/07/20 12:15:59;;;;;;;2.97;2.67;;;;;;;;;;5071925;28;20621;-89
2022/07/20 12:18:40;;;;;;;3.38;2.83;;;;;;;;;;5075248;28;20254;-89
2022/07/20 12:21:09;;;;;;;4.90;2.70;;;;;;;;;;5092003;28;20215;-89
2022/07/20 12:23:37;;;;;;;2.92;2.67;;;;;;;;;;5088034;28;20236;-88
2022/07/20 12:26:20;;;;;;;6.28;2.83;;;;;;;;;;5095288;28;20203;-88
2022/07/20 12:28:47;;;;;;;3.85;2.92;;;;;;;;;;5095179;28;20737;-88
2022/07/20 12:31:15;;;;;;;3.10;2.78;;;;;;;;;;5095296;28;20211;-88
2022/07/20 12:33:57;;;;;;;3.20;2.90;;;;;;;;;;5096708;28;20235;-89
2022/07/20 12:36:32;;;;;;;3.05;2.85;;;;;;;;;;5097182;28;20203;-91
2022/07/20 12:38:59;;;;;;;2.70;2.50;;;;;;;;;;5092709;28;20236;-89
2022/07/20 12:41:26;;;;;;;3.63;2.90;;;;;;;;;;5079628;28;20216;-89
2022/07/20 12:43:53;;;;;;;4.60;2.83;;;;;;;;;;5096251;28;20236;-88
2022/07/20 12:46:21;;;;;;;4.90;3.10;;;;;;;;;;5099184;28;20577;-91
2022/07/20 12:48:50;;;;;;;3.38;2.80;;;;;;;;;;5100141;28;20239;-93
2022/07/20 12:51:20;;;;;;;3.25;3.00;;;;;;;;;;5099648;28;20219;-90
2022/07/20 12:53:49;;;;;;;3.55;3.20;;;;;;;;;;5096570;28;20246;-91
2022/07/20 12:56:21;;;;;;;3.50;3.13;;;;;;;;;;5100388;28;20208;-92
2022/07/20 12:58:48;;;;;;;4.68;3.33;;;;;;;;;;5096725;28;20671;-91
2022/07/20 13:01:15;;;;;;;3.38;3.08;;;;;;;;;;5097586;28;20204;-92
2022/07/20 13:03:42;;;;;;;3.65;3.03;;;;;;;;;;5096712;28;20236;-92
2022/07/20 13:06:09;;;;;;;4.80;2.90;;;;;;;;;;5097621;28;20682;-91
2022/07/20 13:08:36;;;;;;;7.90;3.17;;;;;;;;;;5096109;28;20231;-90
2022/07/20 13:11:05;;;;;;;3.47;3.00;;;;;;;;;;5087066;28;20688;-90
2022/07/20 13:13:32;;;;;;;4.13;3.20;;;;;;;;;;5074871;28;20239;-91
2022/07/20 13:15:59;;;;;;;3.78;3.35;;;;;;;;;;5075907;28;20213;-90
2022/07/20 13:18:26;;;;;;;3.80;3.42;;;;;;;;;;5075066;28;20244;-91
2022/07/20 13:20:53;;;;;;;7.22;3.38;;;;;;;;;;5075879;28;20676;-90
2022/07/20 13:23:20;;;;;;;4.30;3.03;;;;;;;;;;5075910;28;20232;-90
2022/07/20 13:25:48;;;;;;;3.65;3.05;;;;;;;;;;5089485;28;20203;-91
2022/07/20 13:28:17;;;;;;;3.85;3.10;;;;;;;;;;5095398;28;20699;-90
2022/07/20 13:30:46;;;;;;;4.18;3.50;;;;;;;;;;5095656;28;20787;-90
2022/07/20 13:33:13;;;;;;;4.50;2.75;;;;;;;;;;5095957;28;20240;-90
2022/07/20 13:35:43;;;;;;;3.47;3.17;;;;;;;;;;5096222;28;20230;-90
2022/07/20 13:38:10;;;;;;;6.20;3.05;;;;;;;;;;5095134;28;20228;-90
2022/07/20 13:40:37;;;;;;;4.00;3.42;;;;;;;;;;5095199;28;20211;-89
2022/07/20 13:43:05;;;;;;;6.28;3.72;;;;;;;;;;5094501;28;20715;-90
2022/07/20 13:45:33;;;;;;;5.60;3.03;;;;;;;;;;5095562;28;20210;-91
2022/07/20 13:48:00;;;;;;;4.30;3.15;;;;;;;;;;5094990;28;20227;-89
2022/07/20 13:50:28;;;;;;;3.90;3.55;;;;;;;;;;5095284;28;20218;-90
2022/07/20 13:52:55;;;;;;;4.05;3.60;;;;;;;;;;5094243;28;20235;-89
2022/07/20 13:55:22;;;;;;;4.68;3.35;;;;;;;;;;5095549;28;20608;-89
2022/07/20 13:57:49;;;;;;;5.07;3.80;;;;;;;;;;5095444;28;20243;-90
2022/07/20 14:00:16;;;;;;;6.13;3.42;;;;;;;;;;5097746;28;20228;-87
2022/07/20 14:02:45;;;;;;;5.90;3.53;;;;;;;;;;5096089;28;20240;-89
2022/07/20 14:05:12;;;;;;;3.63;3.33;;;;;;;;;;5090518;28;20207;-88
2022/07/20 14:07:40;;;;;;;4.03;3.63;;;;;;;;;;5094411;28;20204;-90
2022/07/20 14:10:08;;;;;;;4.95;3.22;;;;;;;;;;5093698;28;20210;-88
2022/07/20 14:12:35;;;;;;;4.05;3.65;;;;;;;;;;5074817;28;20224;-88
2022/07/20 14:15:02;;;;;;;4.10;3.67;;;;;;;;;;5075538;28;20205;-89
2022/07/20 14:17:29;;;;;;;4.25;3.42;;;;;;;;;;5074328;28;20208;-88
2022/07/20 14:19:58;;;;;;;5.70;3.80;;;;;;;;;;5074787;28;20209;-89
2022/07/20 14:22:25;;;;;;;4.13;3.72;;;;;;;;;;5080368;28;20216;-89
2022/07/20 14:24:52;;;;;;;4.95;3.70;;;;;;;;;;5079387;28;20201;-88
2022/07/20 14:27:19;;;;;;;4.13;3.47;;;;;;;;;;5074941;28;20204;-90
2022/07/20 14:29:47;;;;;;;4.28;3.85;;;;;;;;;;5081954;28;20209;-90
2022/07/20 14:32:17;;;;;;;4.40;3.47;;;;;;;;;;5102378;28;20232;-93
2022/07/20 14:34:44;;;;;;;6.10;4.03;;;;;;;;;;5094534;27;20314;-88
2022/07/20 14:37:12;;;;;;;4.07;3.78;;;;;;;;;;5075185;28;20215;-92
2022/07/20 14:39:40;;;;;;;5.18;3.47;;;;;;;;;;5075215;28;20240;-90
2022/07/20 14:42:07;;;;;;;4.40;3.50;;;;;;;;;;5075274;28;20231;-89
2022/07/20 14:44:34;;;;;;;4.38;3.92;;;;;;;;;;5074445;28;20232;-91
2022/07/20 14:47:01;;;;;;;6.20;3.60;;;;;;;;;;5076821;28;20205;-88
2022/07/20 14:49:28;;;;;;;4.30;3.70;;;;;;;;;;5073452;28;20240;-87
2022/07/20 14:51:55;;;;;;;6.25;3.58;;;;;;;;;;5073856;28;20208;-89
2022/07/20 14:54:24;;;;;;;4.47;4.07;;;;;;;;;;5072741;28;20233;-88